Terminal Aerodrome Forecast
Issued by NWS

Home | Current Version | Previous Version | Text Only | Print | Product List | Glossary On
Versions: 1 2 3 4 5 6 7 8 9 10 11 12 13 14 15 16
000
FTUS45 KRIW 050529
TAFRKS
TAF
KRKS 050529Z 0506/0606 29006KT P6SM SCT110
     FM051800 24016G26KT P6SM SCT090
     FM052200 25020G30KT P6SM VCTS SCT080CB BKN120
     FM060100 27014KT P6SM SCT080 BKN120=

USA.gov is the U.S. government's official web portal to all federal, state and local government web resources and services.